createdAt,value
2022-07-29T00:02:16.933Z,93859.84
2022-07-29T00:04:43.725Z,93860.16
2022-07-29T00:07:10.466Z,93867.41
2022-07-29T00:09:41.953Z,93867.66
2022-07-29T00:12:25.108Z,93857.19
2022-07-29T00:14:56.239Z,93859.31
2022-07-29T00:17:26.425Z,93869.78
2022-07-29T00:19:53.573Z,93862.72
2022-07-29T00:22:20.928Z,93859.97
2022-07-29T00:24:50.919Z,93852.78
2022-07-29T00:27:18.398Z,93859.41
2022-07-29T00:29:45.411Z,93848.59
2022-07-29T00:32:12.182Z,93843.34
2022-07-29T00:34:57.273Z,93844.28
2022-07-29T00:37:24.107Z,93839.88
2022-07-29T00:39:51.358Z,93836.66
2022-07-29T00:42:18.065Z,93830.84
2022-07-29T00:44:44.832Z,93840.19
2022-07-29T00:47:12.774Z,93839.88
2022-07-29T00:49:41.511Z,93824.31
2022-07-29T00:52:10.171Z,93827.97
2022-07-29T00:54:39.829Z,93824.88
2022-07-29T00:57:12.514Z,93829.63
2022-07-29T00:59:39.279Z,93832.22
2022-07-29T01:02:06.125Z,93824.56
2022-07-29T01:04:33.251Z,93824.72
2022-07-29T01:07:02.531Z,93817.34
2022-07-29T01:09:42.120Z,93817.78
2022-07-29T01:12:14.688Z,93817.03
2022-07-29T01:14:42.052Z,93812.38
2022-07-29T01:17:15.038Z,93807.16
2022-07-29T01:20:00.545Z,93811.34
2022-07-29T01:22:50.393Z,93814.13
2022-07-29T01:25:46.547Z,93807.16
2022-07-29T01:28:36.017Z,93803.53
2022-07-29T01:31:06.284Z,93803.78
2022-07-29T01:33:51.453Z,93805.69
2022-07-29T01:36:30.077Z,93805.38
2022-07-29T01:39:15.288Z,93796.09
2022-07-29T01:41:51.723Z,93800.50
2022-07-29T01:44:27.970Z,93790.44
2022-07-29T01:46:59.132Z,93794.47
2022-07-29T01:49:29.673Z,93788.84
2022-07-29T01:52:12.089Z,93783.00
2022-07-29T01:54:46.844Z,93791.44
2022-07-29T01:57:18.344Z,93788.97
2022-07-29T01:59:47.861Z,93786.22
2022-07-29T02:02:17.429Z,93786.38
2022-07-29T02:04:49.351Z,93787.97
2022-07-29T02:07:20.460Z,93783.59
2022-07-29T02:09:50.270Z,93783.28
2022-07-29T02:12:20.120Z,93779.84
2022-07-29T02:14:50.088Z,93778.06
2022-07-29T02:17:23.557Z,93783.28
2022-07-29T02:19:51.258Z,93782.75
2022-07-29T02:22:20.651Z,93787.13
2022-07-29T02:24:50.241Z,93787.56
2022-07-29T02:27:18.924Z,93791.38
2022-07-29T02:29:48.299Z,93784.97
2022-07-29T02:32:17.041Z,93787.75
2022-07-29T02:34:45.732Z,93780.97
2022-07-29T02:37:13.842Z,93782.00
2022-07-29T02:39:43.170Z,93784.66
2022-07-29T02:42:18.222Z,93779.66
2022-07-29T02:44:45.133Z,93786.41
2022-07-29T02:47:16.355Z,93776.81
2022-07-29T02:50:03.562Z,93781.44
2022-07-29T02:52:38.859Z,93780.44
2022-07-29T02:55:20.531Z,93783.19
2022-07-29T02:58:02.418Z,93781.59
2022-07-29T03:00:32.465Z,93786.53
2022-07-29T03:03:04.365Z,93788.09
2022-07-29T03:05:32.344Z,93785.19
2022-07-29T03:08:03.889Z,93802.09
2022-07-29T03:10:32.089Z,93795.34
2022-07-29T03:13:00.735Z,93792.84
2022-07-29T03:15:28.190Z,93794.88
2022-07-29T03:17:56.592Z,93794.34
2022-07-29T03:20:23.981Z,93794.06
2022-07-29T03:22:51.081Z,93791.88
2022-07-29T03:25:20.003Z,93792.97
2022-07-29T03:27:48.176Z,93797.16
2022-07-29T03:30:21.746Z,93787.38
2022-07-29T03:32:52.223Z,93783.84
2022-07-29T03:35:20.625Z,93784.28
2022-07-29T03:37:47.743Z,93790.22
2022-07-29T03:40:20.842Z,93784.25
2022-07-29T03:42:49.468Z,93788.13
2022-07-29T03:45:19.695Z,93787.63
2022-07-29T03:48:01.198Z,93794.78
2022-07-29T03:50:29.934Z,93800.19
2022-07-29T03:52:56.848Z,93801.72
2022-07-29T03:55:24.421Z,93800.81
2022-07-29T03:57:53.324Z,93797.66
2022-07-29T04:00:20.553Z,93786.00
2022-07-29T04:02:49.434Z,93780.13
2022-07-29T04:05:17.339Z,93785.00
2022-07-29T04:07:47.961Z,93782.13
2022-07-29T04:10:16.648Z,93787.19
2022-07-29T04:12:43.712Z,93788.28
2022-07-29T04:15:11.031Z,93786.00
2022-07-29T04:17:37.931Z,93795.16
2022-07-29T04:20:05.613Z,93790.13
2022-07-29T04:22:32.332Z,93800.44
2022-07-29T04:25:03.357Z,93796.91
2022-07-29T04:27:30.843Z,93801.84
2022-07-29T04:29:57.797Z,93807.25
2022-07-29T04:32:25.751Z,93803.31
2022-07-29T04:34:52.429Z,93807.56
2022-07-29T04:37:19.273Z,93798.72
2022-07-29T04:39:45.919Z,93805.84
2022-07-29T04:42:12.597Z,93796.97
2022-07-29T04:44:42.840Z,93795.78
2022-07-29T04:47:10.155Z,93812.91
2022-07-29T04:49:39.567Z,93809.94
2022-07-29T04:52:07.594Z,93809.69
2022-07-29T04:54:34.490Z,93814.06
2022-07-29T04:57:01.183Z,93820.13
2022-07-29T04:59:28.039Z,93810.69
2022-07-29T05:01:54.958Z,93817.31
2022-07-29T05:04:21.754Z,93810.47
2022-07-29T05:06:48.844Z,93817.41
2022-07-29T05:09:15.629Z,93812.69
2022-07-29T05:11:42.334Z,93818.22
2022-07-29T05:14:09.088Z,93809.34
2022-07-29T05:16:36.096Z,93803.44
2022-07-29T05:19:02.809Z,93811.38
2022-07-29T05:21:29.517Z,93812.16
2022-07-29T05:23:56.308Z,93814.19
2022-07-29T05:26:23.157Z,93813.91
2022-07-29T05:28:50.090Z,93825.06
2022-07-29T05:31:16.851Z,93811.78
2022-07-29T05:33:43.654Z,93822.09
2022-07-29T05:36:10.476Z,93815.50
2022-07-29T05:38:37.525Z,93812.84
2022-07-29T05:41:07.742Z,93812.41
2022-07-29T05:43:34.451Z,93809.50
2022-07-29T05:46:01.484Z,93811.50
2022-07-29T05:48:28.303Z,93815.34
2022-07-29T05:50:55.781Z,93814.91
2022-07-29T05:53:22.781Z,93809.03
2022-07-29T05:55:49.885Z,93813.69
2022-07-29T05:58:17.143Z,93803.00
2022-07-29T06:00:44.180Z,93809.28
2022-07-29T06:03:10.861Z,93810.28
2022-07-29T06:05:37.936Z,93805.38
2022-07-29T06:08:06.759Z,93811.31
2022-07-29T06:10:33.782Z,93817.22
2022-07-29T06:13:00.572Z,93818.19
2022-07-29T06:15:27.429Z,93808.50
2022-07-29T06:17:59.048Z,93812.53
2022-07-29T06:20:27.796Z,93822.06
2022-07-29T06:22:54.532Z,93824.84
2022-07-29T06:25:21.313Z,93820.31
2022-07-29T06:27:47.997Z,93821.56
2022-07-29T06:30:14.930Z,93817.19
2022-07-29T06:32:43.316Z,93814.22
2022-07-29T06:35:38.346Z,93818.06
2022-07-29T06:37:59.512Z,93814.97
2022-07-29T06:40:45.739Z,93818.78
2022-07-29T06:43:12.529Z,93824.03
2022-07-29T06:45:42.283Z,93826.22
2022-07-29T06:48:10.497Z,93833.00
2022-07-29T06:50:37.224Z,93826.44
2022-07-29T06:53:05.081Z,93826.72
2022-07-29T06:55:31.870Z,93830.31
2022-07-29T06:57:58.517Z,93831.72
2022-07-29T07:00:26.299Z,93827.25
2022-07-29T07:02:53.050Z,93833.16
2022-07-29T07:05:19.786Z,93842.25
2022-07-29T07:07:46.499Z,93841.91
2022-07-29T07:10:13.204Z,93838.91
2022-07-29T07:12:39.894Z,93845.38
2022-07-29T07:15:07.186Z,93848.16
2022-07-29T07:17:33.929Z,93862.66
2022-07-29T07:20:00.618Z,93859.94
2022-07-29T07:22:27.308Z,93858.41
2022-07-29T07:24:53.946Z,93849.66
2022-07-29T07:27:20.650Z,93848.66
2022-07-29T07:29:47.357Z,93854.50
2022-07-29T07:32:14.518Z,93848.69
2022-07-29T07:34:41.392Z,93856.91
2022-07-29T07:37:08.128Z,93863.97
2022-07-29T07:39:34.885Z,93856.31
2022-07-29T07:42:01.667Z,93873.19
2022-07-29T07:44:28.391Z,93870.59
2022-07-29T07:46:55.171Z,93871.53
2022-07-29T07:49:22.264Z,93873.97
2022-07-29T07:51:50.680Z,93869.28
2022-07-29T07:54:18.922Z,93872.16
2022-07-29T07:56:50.321Z,93875.22
2022-07-29T07:59:20.215Z,93872.09
2022-07-29T08:01:48.193Z,93878.06
2022-07-29T08:04:27.681Z,93883.56
2022-07-29T08:06:56.483Z,93884.75
2022-07-29T08:09:29.666Z,93876.25
2022-07-29T08:11:59.134Z,93887.41
2022-07-29T08:14:26.078Z,93887.56
2022-07-29T08:16:52.858Z,93885.50
2022-07-29T08:19:19.685Z,93895.78
2022-07-29T08:21:46.544Z,93885.22
2022-07-29T08:24:32.090Z,93887.63
2022-07-29T08:26:59.188Z,93901.84
2022-07-29T08:29:25.934Z,93905.28
2022-07-29T08:31:52.898Z,93897.31
2022-07-29T08:34:19.776Z,93905.25
2022-07-29T08:36:54.434Z,93905.25
2022-07-29T08:39:21.101Z,93903.91
2022-07-29T08:41:57.186Z,93905.53
2022-07-29T08:44:29.724Z,93912.47
2022-07-29T08:46:57.926Z,93918.38
2022-07-29T08:49:24.679Z,93917.00
2022-07-29T08:51:52.558Z,93926.22
2022-07-29T08:54:19.860Z,93929.28
2022-07-29T08:56:50.911Z,93931.69
2022-07-29T08:59:22.068Z,93918.69
2022-07-29T09:01:53.680Z,93923.50
2022-07-29T09:04:21.930Z,93924.34
2022-07-29T09:06:52.208Z,93926.66
2022-07-29T09:09:19.129Z,93921.56
2022-07-29T09:11:45.924Z,93927.50
2022-07-29T09:14:14.310Z,93929.53
2022-07-29T09:16:57.854Z,93930.69
2022-07-29T09:19:34.402Z,93916.16
2022-07-29T09:22:03.859Z,93920.41
2022-07-29T09:24:48.226Z,93911.06
2022-07-29T09:27:23.458Z,93918.78
2022-07-29T09:30:11.576Z,93920.25
2022-07-29T09:32:59.216Z,93910.16
2022-07-29T09:35:27.010Z,93916.78
2022-07-29T09:37:53.920Z,93908.25
2022-07-29T09:40:26.391Z,93912.53
2022-07-29T09:42:56.483Z,93914.19
2022-07-29T09:45:34.153Z,93909.16
2022-07-29T09:48:15.066Z,93903.50
2022-07-29T09:50:44.981Z,93919.47
2022-07-29T09:53:12.335Z,93923.13
2022-07-29T09:55:52.204Z,93929.84
2022-07-29T09:58:23.561Z,93922.03
2022-07-29T10:00:51.833Z,93929.88
2022-07-29T10:03:19.043Z,93917.81
2022-07-29T10:05:46.830Z,93909.28
2022-07-29T10:08:13.861Z,93912.50
2022-07-29T10:10:44.522Z,93912.53
2022-07-29T10:13:16.402Z,93909.56
2022-07-29T10:15:46.056Z,93911.00
2022-07-29T10:18:14.994Z,93901.50
2022-07-29T10:20:42.431Z,93899.63
2022-07-29T10:23:10.227Z,93897.81
2022-07-29T10:25:37.101Z,93898.81
2022-07-29T10:28:04.061Z,93896.56
2022-07-29T10:30:32.179Z,93901.16
2022-07-29T10:33:26.902Z,93890.56
2022-07-29T10:36:02.605Z,93886.88
2022-07-29T10:38:45.958Z,93887.34
2022-07-29T10:41:43.567Z,93882.63
2022-07-29T10:44:19.320Z,93887.56
2022-07-29T10:46:51.534Z,93867.53
2022-07-29T10:49:18.323Z,93872.34
2022-07-29T10:51:51.200Z,93861.56
2022-07-29T10:54:19.240Z,93853.31
2022-07-29T10:56:47.664Z,93866.72
2022-07-29T10:59:21.558Z,93859.34
2022-07-29T11:01:53.657Z,93861.19
2022-07-29T11:04:45.801Z,93861.75
2022-07-29T11:07:15.169Z,93863.69
2022-07-29T11:09:41.972Z,93856.47
2022-07-29T11:12:39.380Z,93854.94
2022-07-29T11:15:09.108Z,93857.91
2022-07-29T11:17:54.379Z,93852.91
2022-07-29T11:20:49.919Z,93853.94
2022-07-29T11:23:24.446Z,93859.56
2022-07-29T11:26:28.225Z,93849.34
2022-07-29T11:29:04.536Z,93850.91
2022-07-29T11:31:47.191Z,93843.16
2022-07-29T11:34:18.286Z,93844.06
2022-07-29T11:37:13.822Z,93839.06
2022-07-29T11:39:47.955Z,93840.16
2022-07-29T11:42:17.728Z,93837.94
2022-07-29T11:48:03.467Z,93848.13
2022-07-29T11:50:45.782Z,93837.84
2022-07-29T11:53:15.377Z,93838.75
2022-07-29T11:55:51.057Z,93840.63
2022-07-29T11:58:25.078Z,93845.34
2022-07-29T12:00:52.855Z,93834.31
2022-07-29T12:03:35.157Z,93836.19
2022-07-29T12:06:12.313Z,93838.78
2022-07-29T12:08:43.829Z,93844.47
2022-07-29T12:11:22.501Z,93835.88
2022-07-29T12:13:51.805Z,93836.41
2022-07-29T12:16:25.970Z,93847.06
2022-07-29T12:19:02.352Z,93833.09
2022-07-29T12:21:56.266Z,93846.44
2022-07-29T12:24:26.701Z,93841.53
2022-07-29T12:26:56.569Z,93845.25
2022-07-29T12:29:33.982Z,93850.19
2022-07-29T12:32:04.654Z,93850.97
2022-07-29T12:34:32.186Z,93846.72
2022-07-29T12:36:59.192Z,93853.84
2022-07-29T12:39:28.900Z,93847.44
2022-07-29T12:42:04.091Z,93860.81
2022-07-29T12:44:52.405Z,93870.00
2022-07-29T12:47:20.394Z,93882.91
2022-07-29T12:49:47.960Z,93874.44
2022-07-29T12:52:26.540Z,93877.09
2022-07-29T12:54:53.283Z,93884.63
2022-07-29T12:57:20.436Z,93878.31
2022-07-29T13:00:04.954Z,93877.31
2022-07-29T13:02:31.779Z,93870.66
2022-07-29T13:05:00.470Z,93877.91
2022-07-29T13:07:54.430Z,93893.03
2022-07-29T13:10:24.321Z,93891.69
2022-07-29T13:13:12.719Z,93889.13
2022-07-29T13:15:42.101Z,93893.88
2022-07-29T13:18:28.254Z,93892.69
2022-07-29T13:20:55.712Z,93895.09
2022-07-29T13:23:22.428Z,93902.28
2022-07-29T13:25:49.190Z,93909.75
2022-07-29T13:28:15.874Z,93907.16
2022-07-29T13:30:44.530Z,93902.38
2022-07-29T13:33:11.898Z,93899.53
2022-07-29T13:35:40.039Z,93898.75
2022-07-29T13:38:06.962Z,93897.78
2022-07-29T13:40:36.225Z,93904.50
2022-07-29T13:43:02.941Z,93895.38
2022-07-29T13:45:30.803Z,93893.94
2022-07-29T13:47:57.461Z,93894.72
2022-07-29T13:50:24.232Z,93893.69
2022-07-29T13:52:51.867Z,93902.28
2022-07-29T13:55:18.951Z,93892.34
2022-07-29T13:57:45.906Z,93885.28
2022-07-29T14:00:13.801Z,93888.50
2022-07-29T14:02:40.500Z,93894.16
2022-07-29T14:05:08.926Z,93890.56
2022-07-29T14:07:35.779Z,93891.91
2022-07-29T14:10:02.706Z,93891.47
2022-07-29T14:12:29.582Z,93892.84
2022-07-29T14:14:56.244Z,93888.06
2022-07-29T14:17:23.720Z,93887.44
2022-07-29T14:19:50.441Z,93886.53
2022-07-29T14:22:19.888Z,93884.56
2022-07-29T14:24:49.793Z,93893.31
2022-07-29T14:27:16.537Z,93907.69
2022-07-29T14:29:43.500Z,93901.81
2022-07-29T14:32:11.519Z,93906.50
2022-07-29T14:34:39.014Z,93914.47
2022-07-29T14:37:06.941Z,93913.66
2022-07-29T14:39:42.677Z,93919.53
2022-07-29T14:42:11.573Z,93922.56
2022-07-29T14:44:40.491Z,93931.56
2022-07-29T14:47:08.406Z,93927.28
2022-07-29T14:49:35.983Z,93942.81
2022-07-29T14:52:03.418Z,93933.13
2022-07-29T14:54:30.090Z,93941.09
2022-07-29T14:56:58.490Z,93938.41
2022-07-29T14:59:26.935Z,93949.38
2022-07-29T15:01:53.798Z,93957.47
2022-07-29T15:04:21.111Z,93960.72
2022-07-29T15:06:48.278Z,93966.78
2022-07-29T15:09:14.993Z,93965.31
2022-07-29T15:11:41.729Z,93964.00
2022-07-29T15:14:08.726Z,93966.50
2022-07-29T15:16:46.694Z,93964.28
2022-07-29T15:19:14.961Z,93959.75
2022-07-29T15:21:48.787Z,93960.28
2022-07-29T15:24:26.196Z,93960.75
2022-07-29T15:26:52.941Z,93955.09
2022-07-29T15:29:20.230Z,93958.59
2022-07-29T15:31:46.955Z,93951.50
2022-07-29T15:34:13.778Z,93951.41
2022-07-29T15:36:56.305Z,93954.41
2022-07-29T15:39:23.315Z,93945.31
2022-07-29T15:41:50.792Z,93949.81
2022-07-29T15:44:18.150Z,93947.63
2022-07-29T15:47:03.636Z,93939.13
2022-07-29T15:49:48.368Z,93937.44
2022-07-29T15:52:25.171Z,93942.28
2022-07-29T15:54:54.162Z,93935.38
2022-07-29T15:57:20.864Z,93939.31
2022-07-29T15:59:47.574Z,93939.34
2022-07-29T16:02:14.262Z,93938.19
2022-07-29T16:04:41.202Z,93935.34
2022-07-29T16:07:08.004Z,93932.53
2022-07-29T16:09:34.731Z,93926.28
2022-07-29T16:12:01.462Z,93940.81
2022-07-29T16:14:28.800Z,93935.19
2022-07-29T16:16:56.532Z,93931.00
2022-07-29T16:19:23.598Z,93935.66
2022-07-29T16:21:50.306Z,93934.19
2022-07-29T16:24:17.035Z,93934.91
2022-07-29T16:26:43.720Z,93932.28
2022-07-29T16:29:10.480Z,93930.03
2022-07-29T16:31:37.254Z,93939.03
2022-07-29T16:34:04.118Z,93926.41
2022-07-29T16:36:31.354Z,93925.28
2022-07-29T16:38:58.033Z,93937.88
2022-07-29T16:41:24.716Z,93929.19
2022-07-29T16:43:51.366Z,93931.16
2022-07-29T16:46:18.814Z,93928.16
2022-07-29T16:48:46.418Z,93929.97
2022-07-29T16:51:14.244Z,93930.84
2022-07-29T16:53:41.766Z,93931.94
2022-07-29T16:56:11.241Z,93941.72
2022-07-29T16:58:43.509Z,93940.16
2022-07-29T17:01:11.168Z,93936.97
2022-07-29T17:04:00.115Z,93940.56
2022-07-29T17:06:28.646Z,93947.22
2022-07-29T17:08:56.633Z,93941.09
2022-07-29T17:11:51.847Z,93942.56
2022-07-29T17:14:10.578Z,93947.09
2022-07-29T17:16:37.466Z,93951.44
2022-07-29T17:19:04.477Z,93950.84
2022-07-29T17:21:31.403Z,93949.44
2022-07-29T17:23:59.482Z,93950.22
2022-07-29T17:26:28.226Z,93952.56
2022-07-29T17:28:55.965Z,93959.28
2022-07-29T17:31:23.425Z,93959.34
2022-07-29T17:33:50.345Z,93950.91
2022-07-29T17:36:26.921Z,93959.16
2022-07-29T17:38:56.332Z,93958.91
2022-07-29T17:41:24.274Z,93962.25
2022-07-29T17:43:51.407Z,93962.13
2022-07-29T17:46:19.153Z,93967.81
2022-07-29T17:48:45.997Z,93962.13
2022-07-29T17:51:12.846Z,93964.66
2022-07-29T17:53:40.026Z,93966.06
2022-07-29T17:56:07.060Z,93956.97
2022-07-29T17:58:34.561Z,93962.03
2022-07-29T18:01:01.294Z,93961.44
2022-07-29T18:03:28.042Z,93954.25
2022-07-29T18:05:54.737Z,93954.63
2022-07-29T18:08:21.378Z,93956.75
2022-07-29T18:10:48.173Z,93954.47
2022-07-29T18:13:16.364Z,93958.31
2022-07-29T18:15:45.236Z,93957.34
2022-07-29T18:18:13.424Z,93959.00
2022-07-29T18:20:41.068Z,93957.03
2022-07-29T18:23:07.765Z,93959.03
2022-07-29T18:25:34.673Z,93969.03
2022-07-29T18:28:01.517Z,93965.13
2022-07-29T18:30:29.722Z,93975.94
2022-07-29T18:33:19.742Z,93977.25
2022-07-29T18:35:44.734Z,93974.06
2022-07-29T18:38:11.541Z,93981.19
2022-07-29T18:40:40.031Z,93987.81
2022-07-29T18:43:07.247Z,93982.69
2022-07-29T18:45:34.152Z,93992.38
2022-07-29T18:48:02.241Z,93991.00
2022-07-29T18:50:30.014Z,93995.50
2022-07-29T18:52:58.661Z,94006.25
2022-07-29T18:55:26.191Z,94008.72
2022-07-29T18:57:54.301Z,94015.72
2022-07-29T19:00:22.767Z,94025.19
2022-07-29T19:02:49.941Z,94024.13
2022-07-29T19:05:16.692Z,94025.09
2022-07-29T19:07:43.615Z,94033.16
2022-07-29T19:10:11.213Z,94029.16
2022-07-29T19:12:38.002Z,94037.66
2022-07-29T19:15:04.944Z,94037.03
2022-07-29T19:17:31.608Z,94039.94
2022-07-29T19:19:58.312Z,94039.81
2022-07-29T19:22:25.057Z,94041.81
2022-07-29T19:24:51.816Z,94034.41
2022-07-29T19:27:18.879Z,94031.94
2022-07-29T19:29:45.896Z,94049.50
2022-07-29T19:32:13.485Z,94044.25
2022-07-29T19:35:10.381Z,94050.22
2022-07-29T19:37:37.458Z,94060.06
2022-07-29T19:40:05.666Z,94056.22
2022-07-29T19:42:32.459Z,94057.44
2022-07-29T19:44:59.197Z,94063.91
2022-07-29T19:47:25.988Z,94065.88
2022-07-29T19:49:52.784Z,94065.56
2022-07-29T19:52:19.511Z,94065.06
2022-07-29T19:54:46.268Z,94065.03
2022-07-29T19:57:13.012Z,94072.09
2022-07-29T19:59:41.165Z,94070.69
2022-07-29T20:02:10.888Z,94073.28
2022-07-29T20:04:38.670Z,94076.91
2022-07-29T20:07:06.615Z,94074.22
2022-07-29T20:09:33.415Z,94075.00
2022-07-29T20:12:00.345Z,94080.16
2022-07-29T20:14:27.042Z,94078.94
2022-07-29T20:16:54.369Z,94089.59
2022-07-29T20:19:21.427Z,94082.03
2022-07-29T20:21:48.227Z,94077.84
2022-07-29T20:24:14.970Z,94089.72
2022-07-29T20:26:41.740Z,94089.81
2022-07-29T20:29:09.084Z,94089.59
2022-07-29T20:31:36.034Z,94084.56
2022-07-29T20:34:04.192Z,94090.13
2022-07-29T20:36:31.067Z,94084.56
2022-07-29T20:38:59.950Z,94087.91
2022-07-29T20:41:27.233Z,94085.28
2022-07-29T20:43:53.978Z,94088.50
2022-07-29T20:46:21.234Z,94085.78
2022-07-29T20:48:48.153Z,94079.47
2022-07-29T20:51:14.986Z,94077.16
2022-07-29T20:53:41.833Z,94081.91
2022-07-29T20:56:08.794Z,94083.59
2022-07-29T20:58:36.534Z,94084.03
2022-07-29T21:01:04.115Z,94079.06
2022-07-29T21:03:31.606Z,94074.88
2022-07-29T21:05:59.514Z,94081.44
2022-07-29T21:08:27.237Z,94078.78
2022-07-29T21:10:54.710Z,94076.81
2022-07-29T21:13:22.974Z,94076.81
2022-07-29T21:15:51.693Z,94074.31
2022-07-29T21:18:32.666Z,94064.00
2022-07-29T21:21:00.871Z,94064.88
2022-07-29T21:23:28.170Z,94078.38
2022-07-29T21:25:55.231Z,94076.09
2022-07-29T21:28:40.813Z,94075.88
2022-07-29T21:31:14.822Z,94070.78
2022-07-29T21:33:45.887Z,94077.63
2022-07-29T21:36:47.661Z,94072.88
2022-07-29T21:39:06.736Z,94076.75
2022-07-29T21:41:34.291Z,94083.81
2022-07-29T21:44:01.442Z,94082.28
2022-07-29T21:46:28.385Z,94081.94
2022-07-29T21:48:55.138Z,94074.53
2022-07-29T21:51:22.054Z,94078.97
2022-07-29T21:53:48.822Z,94075.09
2022-07-29T21:56:15.569Z,94087.13
2022-07-29T21:58:44.791Z,94078.97
2022-07-29T22:01:11.555Z,94089.03
2022-07-29T22:03:38.351Z,94079.63
2022-07-29T22:06:05.059Z,94083.63
2022-07-29T22:08:31.722Z,94087.91
2022-07-29T22:10:58.363Z,94089.25
2022-07-29T22:13:25.032Z,94080.28
2022-07-29T22:15:51.822Z,94081.81
2022-07-29T22:18:20.634Z,94079.84
2022-07-29T22:20:49.489Z,94077.72
2022-07-29T22:23:16.215Z,94085.47
2022-07-29T22:25:43.030Z,94075.06
2022-07-29T22:28:09.782Z,94081.03
2022-07-29T22:30:36.526Z,94081.13
2022-07-29T22:33:03.262Z,94085.19
2022-07-29T22:35:29.971Z,94084.63
2022-07-29T22:37:56.652Z,94084.84
2022-07-29T22:40:23.397Z,94080.19
2022-07-29T22:42:57.517Z,94084.59
2022-07-29T22:45:24.335Z,94073.91
2022-07-29T22:47:57.498Z,94080.75
2022-07-29T22:50:26.571Z,94083.84
2022-07-29T22:52:53.248Z,94076.56
2022-07-29T22:55:20.137Z,94082.66
2022-07-29T22:57:46.868Z,94080.66
2022-07-29T23:00:14.166Z,94092.47
2022-07-29T23:02:41.501Z,94080.22
2022-07-29T23:05:11.580Z,94084.50
2022-07-29T23:07:38.580Z,94076.31
2022-07-29T23:10:05.758Z,94084.94
2022-07-29T23:12:32.426Z,94079.50
2022-07-29T23:14:59.111Z,94090.91
2022-07-29T23:17:25.903Z,94077.00
2022-07-29T23:19:52.581Z,94087.59
2022-07-29T23:22:19.276Z,94081.44
2022-07-29T23:24:45.988Z,94078.09
2022-07-29T23:27:12.768Z,94083.09
2022-07-29T23:29:40.148Z,94081.25
2022-07-29T23:32:07.006Z,94080.34
2022-07-29T23:34:33.673Z,94083.00
2022-07-29T23:37:00.567Z,94078.94
2022-07-29T23:39:27.482Z,94082.47
2022-07-29T23:41:54.136Z,94076.25
2022-07-29T23:44:20.984Z,94074.31
2022-07-29T23:46:47.694Z,94078.16
2022-07-29T23:49:14.561Z,94074.53
2022-07-29T23:51:41.289Z,94066.91
2022-07-29T23:54:08.017Z,94064.78
2022-07-29T23:56:34.667Z,94071.88
2022-07-29T23:59:01.289Z,94068.97
